sensor_id;sensor_type;location;lat;lon;timestamp;pressure;altitude;pressure_sealevel;temperature;humidity
38197;BME280;26543;51.976;4.616;2023-04-15T00:02:12;52810.91;;;-140.72;0.00
38197;BME280;26543;51.976;4.616;2023-04-15T00:04:38;52800.75;;;-140.72;0.00
38197;BME280;26543;51.976;4.616;2023-04-15T00:07:03;52808.88;;;-140.72;0.00
38197;BME280;26543;51.976;4.616;2023-04-15T00:09:28;52812.94;;;-140.72;0.00
38197;BME280;26543;51.976;4.616;2023-04-15T00:11:56;52788.59;;;-140.72;0.00
38197;BME280;26543;51.976;4.616;2023-04-15T00:14:21;52798.72;;;-140.72;0.00
38197;BME280;26543;51.976;4.616;2023-04-15T00:16:46;52798.72;;;-140.72;0.00
38197;BME280;26543;51.976;4.616;2023-04-15T00:19:14;52835.25;;;-140.72;0.00
38197;BME280;26543;51.976;4.616;2023-04-15T00:21:39;52808.88;;;-140.72;0.00
38197;BME280;26543;51.976;4.616;2023-04-15T00:24:04;52802.78;;;-140.72;0.00
38197;BME280;26543;51.976;4.616;2023-04-15T00:26:29;52798.72;;;-140.72;0.00
38197;BME280;26543;51.976;4.616;2023-04-15T00:28:55;52845.41;;;-140.72;0.00
38197;BME280;26543;51.976;4.616;2023-04-15T00:31:20;52845.41;;;-140.72;0.00
38197;BME280;26543;51.976;4.616;2023-04-15T00:33:45;52814.97;;;-140.72;0.00
38197;BME280;26543;51.976;4.616;2023-04-15T00:36:11;52817.00;;;-140.72;0.00
38197;BME280;26543;51.976;4.616;2023-04-15T00:38:36;52835.25;;;-140.72;0.00
38197;BME280;26543;51.976;4.616;2023-04-15T00:41:02;52780.47;;;-140.72;0.00
38197;BME280;26543;51.976;4.616;2023-04-15T00:43:27;52847.44;;;-140.72;0.00
38197;BME280;26543;51.976;4.616;2023-04-15T00:45:53;52784.53;;;-140.72;0.00
38197;BME280;26543;51.976;4.616;2023-04-15T00:48:21;52837.28;;;-140.72;0.00
38197;BME280;26543;51.976;4.616;2023-04-15T00:50:47;52837.28;;;-140.72;0.00
38197;BME280;26543;51.976;4.616;2023-04-15T00:53:13;52851.50;;;-140.72;0.00
38197;BME280;26543;51.976;4.616;2023-04-15T00:55:38;52817.00;;;-140.72;0.00
38197;BME280;26543;51.976;4.616;2023-04-15T00:58:04;52800.75;;;-140.72;0.00
38197;BME280;26543;51.976;4.616;2023-04-15T01:00:29;52821.06;;;-140.72;0.00
38197;BME280;26543;51.976;4.616;2023-04-15T01:02:55;52843.38;;;-140.72;0.00
38197;BME280;26543;51.976;4.616;2023-04-15T01:05:20;52823.09;;;-140.72;0.00
38197;BME280;26543;51.976;4.616;2023-04-15T01:07:46;52853.53;;;-140.72;0.00
38197;BME280;26543;51.976;4.616;2023-04-15T01:10:13;52853.53;;;-140.72;0.00
38197;BME280;26543;51.976;4.616;2023-04-15T01:12:38;52849.47;;;-140.72;0.00
38197;BME280;26543;51.976;4.616;2023-04-15T01:15:04;52855.56;;;-140.72;0.00
38197;BME280;26543;51.976;4.616;2023-04-15T01:17:29;52817.00;;;-140.72;0.00
38197;BME280;26543;51.976;4.616;2023-04-15T01:19:55;52847.44;;;-140.72;0.00
38197;BME280;26543;51.976;4.616;2023-04-15T01:22:22;52867.72;;;-140.72;0.00
38197;BME280;26543;51.976;4.616;2023-04-15T01:24:54;52833.22;;;-140.72;0.00
38197;BME280;26543;51.976;4.616;2023-04-15T01:27:22;52833.22;;;-140.72;0.00
38197;BME280;26543;51.976;4.616;2023-04-15T01:29:47;52843.38;;;-140.72;0.00
38197;BME280;26543;51.976;4.616;2023-04-15T01:32:13;52855.56;;;-140.72;0.00
38197;BME280;26543;51.976;4.616;2023-04-15T01:34:38;52869.75;;;-140.72;0.00
38197;BME280;26543;51.976;4.616;2023-04-15T01:37:03;52861.66;;;-140.72;0.00
38197;BME280;26543;51.976;4.616;2023-04-15T01:39:28;52845.41;;;-140.72;0.00
38197;BME280;26543;51.976;4.616;2023-04-15T01:41:53;52886.00;;;-140.72;0.00
38197;BME280;26543;51.976;4.616;2023-04-15T01:44:19;52845.41;;;-140.72;0.00
38197;BME280;26543;51.976;4.616;2023-04-15T01:46:44;52865.69;;;-140.72;0.00
38197;BME280;26543;51.976;4.616;2023-04-15T01:49:09;52855.56;;;-140.72;0.00
38197;BME280;26543;51.976;4.616;2023-04-15T01:51:34;52883.97;;;-140.72;0.00
38197;BME280;26543;51.976;4.616;2023-04-15T01:53:59;52888.03;;;-140.72;0.00
38197;BME280;26543;51.976;4.616;2023-04-15T01:56:25;52857.59;;;-140.72;0.00
38197;BME280;26543;51.976;4.616;2023-04-15T01:58:50;52879.91;;;-140.72;0.00
38197;BME280;26543;51.976;4.616;2023-04-15T02:01:15;52841.34;;;-140.72;0.00
38197;BME280;26543;51.976;4.616;2023-04-15T02:03:43;52871.78;;;-140.72;0.85
38197;BME280;26543;51.976;4.616;2023-04-15T02:06:08;52845.41;;;-140.72;23.03
38197;BME280;26543;51.976;4.616;2023-04-15T02:08:33;52865.69;;;-140.72;28.13
38197;BME280;26543;51.976;4.616;2023-04-15T02:10:59;52849.47;;;-140.72;30.64
38197;BME280;26543;51.976;4.616;2023-04-15T02:13:25;52869.75;;;-140.72;36.97
38197;BME280;26543;51.976;4.616;2023-04-15T02:15:51;52841.34;;;-140.72;43.99
38197;BME280;26543;51.976;4.616;2023-04-15T02:18:17;52831.19;;;-140.72;52.36
38197;BME280;26543;51.976;4.616;2023-04-15T02:20:42;52841.34;;;-140.72;63.75
38197;BME280;26543;51.976;4.616;2023-04-15T02:23:07;52853.53;;;-140.72;70.08
38197;BME280;26543;51.976;4.616;2023-04-15T02:25:33;52855.56;;;-140.72;74.87
38197;BME280;26543;51.976;4.616;2023-04-15T02:27:58;52849.47;;;-140.72;75.70
38197;BME280;26543;51.976;4.616;2023-04-15T02:30:23;52845.41;;;-140.72;81.13
38197;BME280;26543;51.976;4.616;2023-04-15T02:32:50;52879.91;;;-140.72;84.35
38197;BME280;26543;51.976;4.616;2023-04-15T02:35:15;52853.53;;;-140.72;91.42
38197;BME280;26543;51.976;4.616;2023-04-15T02:37:55;52879.91;;;-140.72;93.03
38197;BME280;26543;51.976;4.616;2023-04-15T02:40:20;52841.34;;;-140.72;100.00
38197;BME280;26543;51.976;4.616;2023-04-15T02:45:33;52845.41;;;-140.72;100.00
38197;BME280;26543;51.976;4.616;2023-04-15T02:47:58;52867.72;;;-140.72;100.00
38197;BME280;26543;51.976;4.616;2023-04-15T02:50:23;52906.28;;;-140.72;100.00
38197;BME280;26543;51.976;4.616;2023-04-15T02:52:49;52873.81;;;-140.72;100.00
38197;BME280;26543;51.976;4.616;2023-04-15T02:55:15;52859.63;;;-140.72;100.00
38197;BME280;26543;51.976;4.616;2023-04-15T02:57:41;52869.75;;;-140.72;100.00
38197;BME280;26543;51.976;4.616;2023-04-15T03:00:07;52881.94;;;-140.72;100.00
38197;BME280;26543;51.976;4.616;2023-04-15T03:02:34;52851.50;;;-140.72;100.00
38197;BME280;26543;51.976;4.616;2023-04-15T03:05:00;52825.13;;;-140.72;100.00
38197;BME280;26543;51.976;4.616;2023-04-15T03:07:25;52867.72;;;-140.72;100.00
38197;BME280;26543;51.976;4.616;2023-04-15T03:09:50;52849.47;;;-140.72;100.00
38197;BME280;26543;51.976;4.616;2023-04-15T03:12:16;52875.84;;;-140.72;100.00
38197;BME280;26543;51.976;4.616;2023-04-15T03:14:41;52881.94;;;-140.72;100.00
38197;BME280;26543;51.976;4.616;2023-04-15T03:17:06;52829.19;;;-140.72;100.00
38197;BME280;26543;51.976;4.616;2023-04-15T03:19:32;52867.72;;;-140.72;100.00
38197;BME280;26543;51.976;4.616;2023-04-15T03:21:57;52922.53;;;-140.72;100.00
38197;BME280;26543;51.976;4.616;2023-04-15T03:24:22;52879.91;;;-140.72;100.00
38197;BME280;26543;51.976;4.616;2023-04-15T03:26:48;52869.75;;;-140.72;100.00
38197;BME280;26543;51.976;4.616;2023-04-15T03:29:14;52857.59;;;-140.72;100.00
38197;BME280;26543;51.976;4.616;2023-04-15T03:31:39;52851.50;;;-140.72;100.00
38197;BME280;26543;51.976;4.616;2023-04-15T03:34:04;52865.69;;;-140.72;100.00
38197;BME280;26543;51.976;4.616;2023-04-15T03:36:29;52833.22;;;-140.72;100.00
38197;BME280;26543;51.976;4.616;2023-04-15T03:38:56;52853.53;;;-140.72;100.00
38197;BME280;26543;51.976;4.616;2023-04-15T03:41:22;52892.09;;;-140.72;100.00
38197;BME280;26543;51.976;4.616;2023-04-15T03:43:47;52861.66;;;-140.72;100.00
38197;BME280;26543;51.976;4.616;2023-04-15T03:46:13;52881.94;;;-140.72;100.00
38197;BME280;26543;51.976;4.616;2023-04-15T03:48:38;52873.81;;;-140.72;100.00
38197;BME280;26543;51.976;4.616;2023-04-15T03:51:03;52861.66;;;-140.72;100.00
38197;BME280;26543;51.976;4.616;2023-04-15T03:53:28;52873.81;;;-140.72;100.00
38197;BME280;26543;51.976;4.616;2023-04-15T03:55:54;52890.06;;;-140.72;100.00
38197;BME280;26543;51.976;4.616;2023-04-15T03:58:19;52861.66;;;-140.72;100.00
38197;BME280;26543;51.976;4.616;2023-04-15T04:00:44;52922.53;;;-140.72;100.00
38197;BME280;26543;51.976;4.616;2023-04-15T04:03:09;52890.06;;;-140.72;100.00
38197;BME280;26543;51.976;4.616;2023-04-15T04:05:35;52886.00;;;-140.72;100.00
38197;BME280;26543;51.976;4.616;2023-04-15T04:08:02;52877.88;;;-140.72;100.00
38197;BME280;26543;51.976;4.616;2023-04-15T04:10:28;52853.53;;;-140.72;100.00
38197;BME280;26543;51.976;4.616;2023-04-15T04:12:53;52875.84;;;-140.72;100.00
38197;BME280;26543;51.976;4.616;2023-04-15T04:15:18;52877.88;;;-140.72;100.00
38197;BME280;26543;51.976;4.616;2023-04-15T04:17:43;52873.81;;;-140.72;100.00
38197;BME280;26543;51.976;4.616;2023-04-15T04:20:09;52873.81;;;-140.72;100.00
38197;BME280;26543;51.976;4.616;2023-04-15T04:22:37;52890.06;;;-140.72;100.00
38197;BME280;26543;51.976;4.616;2023-04-15T04:25:04;52875.84;;;-140.72;100.00
38197;BME280;26543;51.976;4.616;2023-04-15T04:27:29;52879.91;;;-140.72;100.00
38197;BME280;26543;51.976;4.616;2023-04-15T04:29:55;52881.94;;;-140.72;100.00
38197;BME280;26543;51.976;4.616;2023-04-15T04:32:20;52896.16;;;-140.72;100.00
38197;BME280;26543;51.976;4.616;2023-04-15T04:34:45;52871.78;;;-140.72;100.00
38197;BME280;26543;51.976;4.616;2023-04-15T04:37:11;52900.19;;;-140.72;100.00
38197;BME280;26543;51.976;4.616;2023-04-15T04:39:36;52922.53;;;-140.72;100.00
38197;BME280;26543;51.976;4.616;2023-04-15T04:42:01;52881.94;;;-140.72;100.00
38197;BME280;26543;51.976;4.616;2023-04-15T04:44:26;52863.66;;;-140.72;100.00
38197;BME280;26543;51.976;4.616;2023-04-15T04:46:52;52916.44;;;-140.72;100.00
38197;BME280;26543;51.976;4.616;2023-04-15T04:49:17;52898.16;;;-140.72;100.00
38197;BME280;26543;51.976;4.616;2023-04-15T04:51:42;52886.00;;;-140.72;100.00
38197;BME280;26543;51.976;4.616;2023-04-15T04:54:07;52902.22;;;-140.72;100.00
38197;BME280;26543;51.976;4.616;2023-04-15T04:56:33;52883.97;;;-140.72;100.00
38197;BME280;26543;51.976;4.616;2023-04-15T04:58:58;52920.50;;;-140.72;100.00
38197;BME280;26543;51.976;4.616;2023-04-15T05:01:24;52910.34;;;-140.72;100.00
38197;BME280;26543;51.976;4.616;2023-04-15T05:03:51;52908.31;;;-140.72;100.00
38197;BME280;26543;51.976;4.616;2023-04-15T05:06:16;52940.78;;;-140.72;100.00
38197;BME280;26543;51.976;4.616;2023-04-15T05:08:41;52906.28;;;-140.72;100.00
38197;BME280;26543;51.976;4.616;2023-04-15T05:11:07;52936.72;;;-140.72;100.00
38197;BME280;26543;51.976;4.616;2023-04-15T05:13:33;52888.03;;;-140.72;100.00
38197;BME280;26543;51.976;4.616;2023-04-15T05:15:58;52898.16;;;-140.72;100.00
38197;BME280;26543;51.976;4.616;2023-04-15T05:18:23;52881.94;;;-140.72;100.00
38197;BME280;26543;51.976;4.616;2023-04-15T05:20:48;52900.19;;;-140.72;100.00
38197;BME280;26543;51.976;4.616;2023-04-15T05:23:14;52916.44;;;-140.72;100.00
38197;BME280;26543;51.976;4.616;2023-04-15T05:25:39;52890.06;;;-140.72;100.00
38197;BME280;26543;51.976;4.616;2023-04-15T05:28:05;52853.53;;;-140.72;100.00
38197;BME280;26543;51.976;4.616;2023-04-15T05:30:30;52938.75;;;-140.72;100.00
38197;BME280;26543;51.976;4.616;2023-04-15T05:32:55;52898.16;;;-140.72;100.00
38197;BME280;26543;51.976;4.616;2023-04-15T05:35:21;52898.16;;;-140.72;100.00
38197;BME280;26543;51.976;4.616;2023-04-15T05:37:46;52886.00;;;-140.72;100.00
38197;BME280;26543;51.976;4.616;2023-04-15T05:40:12;52934.69;;;-140.72;100.00
38197;BME280;26543;51.976;4.616;2023-04-15T05:42:37;52886.00;;;-140.72;100.00
38197;BME280;26543;51.976;4.616;2023-04-15T05:45:02;52865.69;;;-140.72;100.00
38197;BME280;26543;51.976;4.616;2023-04-15T05:47:29;52883.97;;;-140.72;100.00
38197;BME280;26543;51.976;4.616;2023-04-15T05:49:54;52867.72;;;-140.72;100.00
38197;BME280;26543;51.976;4.616;2023-04-15T05:52:20;52865.69;;;-140.72;100.00
38197;BME280;26543;51.976;4.616;2023-04-15T05:54:45;52865.69;;;-140.72;100.00
38197;BME280;26543;51.976;4.616;2023-04-15T05:57:11;52918.47;;;-140.72;100.00
38197;BME280;26543;51.976;4.616;2023-04-15T05:59:36;52869.75;;;-140.72;100.00
38197;BME280;26543;51.976;4.616;2023-04-15T06:02:02;52888.03;;;-140.72;100.00
38197;BME280;26543;51.976;4.616;2023-04-15T06:04:28;52873.81;;;-140.72;100.00
38197;BME280;26543;51.976;4.616;2023-04-15T06:06:53;52896.16;;;-140.72;100.00
38197;BME280;26543;51.976;4.616;2023-04-15T06:09:18;52900.19;;;-140.72;100.00
38197;BME280;26543;51.976;4.616;2023-04-15T06:11:44;52892.09;;;-140.72;100.00
38197;BME280;26543;51.976;4.616;2023-04-15T06:14:09;52886.00;;;-140.72;100.00
38197;BME280;26543;51.976;4.616;2023-04-15T06:16:34;52871.78;;;-140.72;100.00
38197;BME280;26543;51.976;4.616;2023-04-15T06:19:00;52861.66;;;-140.72;100.00
38197;BME280;26543;51.976;4.616;2023-04-15T06:21:25;52863.66;;;-140.72;100.00
38197;BME280;26543;51.976;4.616;2023-04-15T06:23:51;52835.25;;;-140.72;100.00
38197;BME280;26543;51.976;4.616;2023-04-15T06:26:17;52853.53;;;-140.72;100.00
38197;BME280;26543;51.976;4.616;2023-04-15T06:28:42;52883.97;;;-140.72;100.00
38197;BME280;26543;51.976;4.616;2023-04-15T06:31:07;52871.78;;;-140.72;100.00
38197;BME280;26543;51.976;4.616;2023-04-15T06:33:33;52829.19;;;-140.72;100.00
38197;BME280;26543;51.976;4.616;2023-04-15T06:35:58;52857.59;;;-140.72;100.00
38197;BME280;26543;51.976;4.616;2023-04-15T06:38:23;52833.22;;;-140.72;100.00
38197;BME280;26543;51.976;4.616;2023-04-15T06:40:48;52863.66;;;-140.72;100.00
38197;BME280;26543;51.976;4.616;2023-04-15T06:43:14;52833.22;;;-140.72;100.00
38197;BME280;26543;51.976;4.616;2023-04-15T06:45:39;52849.47;;;-140.72;100.00
38197;BME280;26543;51.976;4.616;2023-04-15T06:48:04;52796.72;;;-140.72;100.00
38197;BME280;26543;51.976;4.616;2023-04-15T06:50:29;52806.84;;;-140.72;100.00
38197;BME280;26543;51.976;4.616;2023-04-15T06:52:55;52833.22;;;-140.72;100.00
38197;BME280;26543;51.976;4.616;2023-04-15T06:55:20;52851.50;;;-140.72;100.00
38197;BME280;26543;51.976;4.616;2023-04-15T06:57:45;52821.06;;;-140.72;100.00
38197;BME280;26543;51.976;4.616;2023-04-15T07:00:11;52873.81;;;-140.72;100.00
38197;BME280;26543;51.976;4.616;2023-04-15T07:02:36;52817.00;;;-140.72;100.00
38197;BME280;26543;51.976;4.616;2023-04-15T07:05:01;52808.88;;;-140.72;100.00
38197;BME280;26543;51.976;4.616;2023-04-15T07:07:27;52794.69;;;-140.72;100.00
38197;BME280;26543;51.976;4.616;2023-04-15T07:09:52;52825.13;;;-140.72;100.00
38197;BME280;26543;51.976;4.616;2023-04-15T07:12:17;52817.00;;;-140.72;100.00
38197;BME280;26543;51.976;4.616;2023-04-15T07:14:43;52855.56;;;-140.72;100.00
38197;BME280;26543;51.976;4.616;2023-04-15T07:17:08;52847.44;;;-140.72;100.00
38197;BME280;26543;51.976;4.616;2023-04-15T07:19:33;52814.97;;;-140.72;100.00
38197;BME280;26543;51.976;4.616;2023-04-15T07:21:59;52849.47;;;-140.72;100.00
38197;BME280;26543;51.976;4.616;2023-04-15T07:24:25;52806.84;;;-140.72;100.00
38197;BME280;26543;51.976;4.616;2023-04-15T07:26:51;52819.03;;;-140.72;100.00
38197;BME280;26543;51.976;4.616;2023-04-15T07:29:16;52796.72;;;-140.72;100.00
38197;BME280;26543;51.976;4.616;2023-04-15T07:31:42;52796.72;;;-140.72;100.00
38197;BME280;26543;51.976;4.616;2023-04-15T07:37:06;52814.97;;;-140.72;100.00
38197;BME280;26543;51.976;4.616;2023-04-15T07:39:31;52823.09;;;-140.72;100.00
38197;BME280;26543;51.976;4.616;2023-04-15T07:41:56;52784.53;;;-140.72;100.00
38197;BME280;26543;51.976;4.616;2023-04-15T07:44:23;52792.66;;;-140.72;100.00
38197;BME280;26543;51.976;4.616;2023-04-15T07:46:48;52808.88;;;-140.72;100.00
38197;BME280;26543;51.976;4.616;2023-04-15T07:49:13;52760.19;;;-140.72;100.00
38197;BME280;26543;51.976;4.616;2023-04-15T07:51:39;52810.91;;;-140.72;100.00
38197;BME280;26543;51.976;4.616;2023-04-15T07:56:34;52794.69;;;-140.72;100.00
38197;BME280;26543;51.976;4.616;2023-04-15T07:58:59;52786.56;;;-140.72;100.00
38197;BME280;26543;51.976;4.616;2023-04-15T08:01:26;52788.59;;;-140.72;100.00
38197;BME280;26543;51.976;4.616;2023-04-15T08:03:51;52794.69;;;-140.72;100.00
38197;BME280;26543;51.976;4.616;2023-04-15T08:06:17;52752.06;;;-140.72;100.00
38197;BME280;26543;51.976;4.616;2023-04-15T08:08:42;52780.47;;;-140.72;100.00
38197;BME280;26543;51.976;4.616;2023-04-15T08:11:08;52784.53;;;-140.72;100.00
38197;BME280;26543;51.976;4.616;2023-04-15T08:13:33;52764.25;;;-140.72;100.00
38197;BME280;26543;51.976;4.616;2023-04-15T08:16:18;52800.75;;;-140.72;100.00
38197;BME280;26543;51.976;4.616;2023-04-15T08:18:45;52758.16;;;-140.72;100.00
38197;BME280;26543;51.976;4.616;2023-04-15T08:21:10;52743.94;;;-140.72;93.90
38197;BME280;26543;51.976;4.616;2023-04-15T08:23:35;52752.06;;;-140.72;82.66
38197;BME280;26543;51.976;4.616;2023-04-15T08:26:01;52741.91;;;-140.72;71.28
38197;BME280;26543;51.976;4.616;2023-04-15T08:28:26;52748.00;;;-140.72;63.25
38197;BME280;26543;51.976;4.616;2023-04-15T08:30:51;52790.63;;;-140.72;47.00
38197;BME280;26543;51.976;4.616;2023-04-15T08:33:16;52760.19;;;-140.72;36.53
38197;BME280;26543;51.976;4.616;2023-04-15T08:35:42;52743.94;;;-140.72;14.30
38197;BME280;26543;51.976;4.616;2023-04-15T08:38:07;52703.34;;;-140.72;0.00
38197;BME280;26543;51.976;4.616;2023-04-15T08:40:34;52662.78;;;-140.72;0.00
38197;BME280;26543;51.976;4.616;2023-04-15T08:43:04;52666.84;;;-140.72;0.00
38197;BME280;26543;51.976;4.616;2023-04-15T08:45:30;52691.19;;;-140.72;0.00
38197;BME280;26543;51.976;4.616;2023-04-15T08:47:56;52668.84;;;-140.72;0.00
38197;BME280;26543;51.976;4.616;2023-04-15T08:50:21;52650.59;;;-140.72;0.00
38197;BME280;26543;51.976;4.616;2023-04-15T08:52:48;52654.66;;;-140.72;0.00
38197;BME280;26543;51.976;4.616;2023-04-15T08:55:13;52689.16;;;-140.72;0.00
38197;BME280;26543;51.976;4.616;2023-04-15T08:57:39;52634.38;;;-140.72;0.00
38197;BME280;26543;51.976;4.616;2023-04-15T09:00:05;52638.41;;;-140.72;0.00
38197;BME280;26543;51.976;4.616;2023-04-15T09:02:30;52618.13;;;-140.72;0.00
38197;BME280;26543;51.976;4.616;2023-04-15T09:04:55;52581.59;;;-140.72;0.00
38197;BME280;26543;51.976;4.616;2023-04-15T09:07:21;52532.91;;;-140.72;0.00
38197;BME280;26543;51.976;4.616;2023-04-15T09:09:47;52514.63;;;-140.72;0.00
38197;BME280;26543;51.976;4.616;2023-04-15T09:12:12;52445.66;;;-140.72;0.00
38197;BME280;26543;51.976;4.616;2023-04-15T09:14:38;52496.38;;;-140.72;0.00
38197;BME280;26543;51.976;4.616;2023-04-15T09:17:04;52463.91;;;-140.72;0.00
38197;BME280;26543;51.976;4.616;2023-04-15T09:19:30;52500.44;;;-140.72;0.00
38197;BME280;26543;51.976;4.616;2023-04-15T09:21:56;52476.09;;;-140.72;0.00
38197;BME280;26543;51.976;4.616;2023-04-15T09:24:21;52467.97;;;-140.72;0.00
38197;BME280;26543;51.976;4.616;2023-04-15T09:26:47;52443.63;;;-140.72;0.00
38197;BME280;26543;51.976;4.616;2023-04-15T09:29:16;52484.19;;;-140.72;0.00
38197;BME280;26543;51.976;4.616;2023-04-15T09:31:42;52467.97;;;-140.72;0.00
38197;BME280;26543;51.976;4.616;2023-04-15T09:34:08;52439.56;;;-140.72;0.00
38197;BME280;26543;51.976;4.616;2023-04-15T09:39:07;52427.38;;;-140.72;0.00
38197;BME280;26543;51.976;4.616;2023-04-15T09:41:32;52407.09;;;-140.72;0.00
38197;BME280;26543;51.976;4.616;2023-04-15T09:43:58;52396.94;;;-140.72;0.00
38197;BME280;26543;51.976;4.616;2023-04-15T09:46:39;52421.28;;;-140.72;0.00
38197;BME280;26543;51.976;4.616;2023-04-15T09:49:09;52382.75;;;-140.72;0.00
38197;BME280;26543;51.976;4.616;2023-04-15T09:51:34;52417.25;;;-140.72;0.00
38197;BME280;26543;51.976;4.616;2023-04-15T09:54:00;52336.06;;;-140.72;0.00
38197;BME280;26543;51.976;4.616;2023-04-15T09:56:31;52358.41;;;-140.72;0.00
38197;BME280;26543;51.976;4.616;2023-04-15T09:58:56;52386.81;;;-140.72;0.00
38197;BME280;26543;51.976;4.616;2023-04-15T10:01:21;52360.44;;;-140.72;0.00
38197;BME280;26543;51.976;4.616;2023-04-15T10:03:46;52411.16;;;-140.72;0.00
38197;BME280;26543;51.976;4.616;2023-04-15T10:06:12;52417.25;;;-140.72;0.00
38197;BME280;26543;51.976;4.616;2023-04-15T10:08:38;52374.63;;;-140.72;0.00
38197;BME280;26543;51.976;4.616;2023-04-15T10:11:05;52366.50;;;-140.72;0.00
38197;BME280;26543;51.976;4.616;2023-04-15T10:13:31;52366.50;;;-140.72;0.00
38197;BME280;26543;51.976;4.616;2023-04-15T10:16:20;52277.22;;;-140.72;0.00
38197;BME280;26543;51.976;4.616;2023-04-15T10:18:45;52297.53;;;-140.72;0.00
38197;BME280;26543;51.976;4.616;2023-04-15T10:21:11;52313.75;;;-140.72;0.00
38197;BME280;26543;51.976;4.616;2023-04-15T10:23:38;52293.47;;;-140.72;0.00
38197;BME280;26543;51.976;4.616;2023-04-15T10:26:03;52293.47;;;-140.72;0.00
38197;BME280;26543;51.976;4.616;2023-04-15T10:28:29;52330.00;;;-140.72;0.00
38197;BME280;26543;51.976;4.616;2023-04-15T10:30:55;52309.69;;;-140.72;0.00
38197;BME280;26543;51.976;4.616;2023-04-15T10:33:22;52277.22;;;-140.72;0.00
38197;BME280;26543;51.976;4.616;2023-04-15T10:35:47;52242.75;;;-140.72;0.00
38197;BME280;26543;51.976;4.616;2023-04-15T10:38:31;52267.09;;;-140.72;0.00
38197;BME280;26543;51.976;4.616;2023-04-15T10:43:38;52271.16;;;-140.72;0.00
38197;BME280;26543;51.976;4.616;2023-04-15T10:46:04;52236.66;;;-140.72;0.00
38197;BME280;26543;51.976;4.616;2023-04-15T10:48:30;52230.56;;;-140.72;0.00
38197;BME280;26543;51.976;4.616;2023-04-15T10:50:56;52198.09;;;-140.72;0.00
38197;BME280;26543;51.976;4.616;2023-04-15T10:53:27;52244.78;;;-140.72;0.00
38197;BME280;26543;51.976;4.616;2023-04-15T10:55:53;52242.75;;;-140.72;0.00
38197;BME280;26543;51.976;4.616;2023-04-15T10:58:18;52218.38;;;-140.72;0.00
38197;BME280;26543;51.976;4.616;2023-04-15T11:00:50;52192.00;;;-140.72;0.00
38197;BME280;26543;51.976;4.616;2023-04-15T11:03:37;52185.94;;;-140.72;0.00
38197;BME280;26543;51.976;4.616;2023-04-15T11:06:03;52173.75;;;-140.72;0.00
38197;BME280;26543;51.976;4.616;2023-04-15T11:11:13;52137.22;;;-140.72;0.00
38197;BME280;26543;51.976;4.616;2023-04-15T11:13:46;52204.19;;;-140.72;0.00
38197;BME280;26543;51.976;4.616;2023-04-15T11:16:11;52123.03;;;-140.72;0.00
38197;BME280;26543;51.976;4.616;2023-04-15T11:18:36;52121.00;;;-140.72;0.00
38197;BME280;26543;51.976;4.616;2023-04-15T11:21:03;52121.00;;;-140.72;0.00
38197;BME280;26543;51.976;4.616;2023-04-15T11:23:33;52108.81;;;-140.72;0.00
38197;BME280;26543;51.976;4.616;2023-04-15T11:25:59;52047.97;;;-140.72;0.00
38197;BME280;26543;51.976;4.616;2023-04-15T11:28:25;52041.88;;;-140.72;0.00
38197;BME280;26543;51.976;4.616;2023-04-15T11:30:51;52041.88;;;-140.72;0.00
38197;BME280;26543;51.976;4.616;2023-04-15T11:33:16;52161.56;;;-140.72;0.00
38197;BME280;26543;51.976;4.616;2023-04-15T11:35:41;52175.78;;;-140.72;0.00
38197;BME280;26543;51.976;4.616;2023-04-15T11:38:08;52102.75;;;-140.72;0.00
38197;BME280;26543;51.976;4.616;2023-04-15T11:40:34;52289.41;;;-140.72;0.00
38197;BME280;26543;51.976;4.616;2023-04-15T11:43:16;52354.34;;;-140.72;0.00
38197;BME280;26543;51.976;4.616;2023-04-15T11:45:58;52352.31;;;-140.72;0.00
38197;BME280;26543;51.976;4.616;2023-04-15T11:48:24;52457.81;;;-140.72;0.00
38197;BME280;26543;51.976;4.616;2023-04-15T11:50:57;52378.69;;;-140.72;0.00
38197;BME280;26543;51.976;4.616;2023-04-15T11:53:23;52419.28;;;-140.72;0.00
38197;BME280;26543;51.976;4.616;2023-04-15T11:55:52;52342.16;;;-140.72;0.00
38197;BME280;26543;51.976;4.616;2023-04-15T11:58:21;52382.75;;;-140.72;0.00
38197;BME280;26543;51.976;4.616;2023-04-15T12:00:48;52411.16;;;-140.72;0.00
38197;BME280;26543;51.976;4.616;2023-04-15T12:03:18;52394.91;;;-140.72;0.00
38197;BME280;26543;51.976;4.616;2023-04-15T12:09:12;52271.16;;;-140.72;0.00
38197;BME280;26543;51.976;4.616;2023-04-15T12:11:16;52187.97;;;-140.72;0.00
38197;BME280;26543;51.976;4.616;2023-04-15T12:16:12;52100.72;;;-140.72;0.00
38197;BME280;26543;51.976;4.616;2023-04-15T12:18:37;52238.69;;;-140.72;0.00
38197;BME280;26543;51.976;4.616;2023-04-15T12:21:20;52360.44;;;-140.72;0.00
38197;BME280;26543;51.976;4.616;2023-04-15T12:23:49;52175.78;;;-140.72;0.00
38197;BME280;26543;51.976;4.616;2023-04-15T12:26:15;52116.94;;;-140.72;0.00
38197;BME280;26543;51.976;4.616;2023-04-15T12:28:41;52185.94;;;-140.72;0.00
38197;BME280;26543;51.976;4.616;2023-04-15T12:31:07;52214.34;;;-140.72;0.00
38197;BME280;26543;51.976;4.616;2023-04-15T12:33:33;52200.13;;;-140.72;0.00
38197;BME280;26543;51.976;4.616;2023-04-15T12:35:58;52131.16;;;-140.72;0.00
38197;BME280;26543;51.976;4.616;2023-04-15T12:38:24;52131.16;;;-140.72;0.00
38197;BME280;26543;51.976;4.616;2023-04-15T12:40:49;52074.34;;;-140.72;0.00
38197;BME280;26543;51.976;4.616;2023-04-15T12:43:15;52106.78;;;-140.72;0.00
38197;BME280;26543;51.976;4.616;2023-04-15T12:45:40;52098.69;;;-140.72;0.00
38197;BME280;26543;51.976;4.616;2023-04-15T12:48:06;52145.34;;;-140.72;0.00
38197;BME280;26543;51.976;4.616;2023-04-15T12:50:33;52131.16;;;-140.72;0.00
38197;BME280;26543;51.976;4.616;2023-04-15T12:52:58;52092.59;;;-140.72;0.00
38197;BME280;26543;51.976;4.616;2023-04-15T12:55:23;52216.34;;;-140.72;0.00
38197;BME280;26543;51.976;4.616;2023-04-15T12:57:48;52285.34;;;-140.72;0.00